Time;durP1;ratioP1;P1;durP2;ratioP2;P2;SDS_P1;SDS_P2;PMS_P1;PMS_P2;Temp;Humidity;BMP_temperature;BMP_pressure;BME280_temperature;BME280_humidity;BME280_pressure;Samples;Min_cycle;Max_cycle;Signal;HPM_P1;HPM_P2
2021/07/14 00:04:51;;;;;;;14.48;13.07;;;30.00;54.50;;;;;;4740679;55;21069;-27
2021/07/14 00:09:52;;;;;;;14.90;13.40;;;30.00;54.40;;;;;;4742614;55;21018;-21
2021/07/14 00:26:44;;;;;;;14.70;13.30;;;30.00;54.30;;;;;;4747504;55;21113;-23
2021/07/14 00:31:45;;;;;;;14.25;12.85;;;30.00;54.30;;;;;;4765042;55;21055;-24
2021/07/14 00:36:46;;;;;;;14.52;13.02;;;30.00;54.30;;;;;;4749963;55;21061;-25
2021/07/14 00:41:47;;;;;;;15.13;13.62;;;30.00;54.20;;;;;;4740503;55;21081;-24
2021/07/14 00:46:49;;;;;;;14.80;13.23;;;30.00;54.30;;;;;;4751992;55;21101;-27
2021/07/14 00:51:50;;;;;;;13.10;11.80;;;30.00;54.20;;;;;;4740199;55;21002;-26
2021/07/14 00:56:51;;;;;;;14.07;12.70;;;30.00;54.20;;;;;;4743610;55;21591;-24
2021/07/14 01:01:52;;;;;;;14.25;12.13;;;30.00;54.30;;;;;;4760213;55;21013;-24
2021/07/14 01:07:31;;;;;;;13.82;12.48;;;30.00;54.20;;;;;;4738963;55;21018;-25
2021/07/14 01:14:21;;;;;;;14.18;12.68;;;30.00;54.20;;;;;;4738799;59;21595;-26
2021/07/14 01:25:52;;;;;;;13.60;12.18;;;30.00;54.20;;;;;;4746120;55;21472;-27
2021/07/14 01:30:55;;;;;;;13.62;12.35;;;30.00;54.20;;;;;;4793051;55;21010;-26
2021/07/14 01:35:58;;;;;;;12.95;11.63;;;30.00;54.20;;;;;;4792448;55;21046;-22
2021/07/14 01:41:02;;;;;;;15.38;11.70;;;30.00;54.20;;;;;;4752744;55;21069;-25
2021/07/14 01:46:05;;;;;;;12.50;11.30;;;30.00;54.20;;;;;;4755619;55;21058;-26
2021/07/14 01:51:07;;;;;;;13.90;11.77;;;30.00;54.20;;;;;;4793811;55;21097;-24
2021/07/14 01:56:11;;;;;;;12.73;11.50;;;30.00;54.20;;;;;;4739477;59;21038;-27
2021/07/14 02:01:16;;;;;;;12.30;11.05;;;30.00;54.10;;;;;;4755760;55;21635;-25
2021/07/14 02:06:20;;;;;;;12.45;11.12;;;29.90;54.00;;;;;;4755352;55;21061;-25
2021/07/14 02:11:24;;;;;;;12.68;11.48;;;30.00;54.00;;;;;;4743648;55;21113;-24
2021/07/14 02:16:25;;;;;;;12.90;11.48;;;30.00;54.00;;;;;;4759354;55;21473;-25
2021/07/14 02:21:26;;;;;;;11.88;10.77;;;30.00;53.90;;;;;;4771876;55;21054;-29
2021/07/14 02:26:31;;;;;;;12.05;10.75;;;30.00;53.90;;;;;;4738373;59;21559;-22
2021/07/14 02:31:32;;;;;;;12.00;10.88;;;30.00;53.90;;;;;;4738438;56;21484;-30
2021/07/14 02:36:34;;;;;;;11.95;10.65;;;30.00;53.70;;;;;;4789965;55;21006;-28
2021/07/14 02:41:50;;;;;;;11.75;10.32;;;29.90;53.60;;;;;;4803291;55;21079;-29
2021/07/14 02:46:51;;;;;;;;;;;29.90;53.50;;;;;;4741757;59;21540;-27
2021/07/14 02:51:52;;;;;;;10.20;9.20;;;30.00;53.60;;;;;;4796761;55;20077;-31
2021/07/14 02:57:01;;;;;;;10.50;9.43;;;30.00;53.20;;;;;;4738116;59;21078;-29
2021/07/14 03:02:03;;;;;;;11.02;8.90;;;29.90;52.70;;;;;;4760328;55;21595;-28
2021/07/14 03:07:08;;;;;;;10.38;9.38;;;29.90;52.50;;;;;;4743401;55;21102;-27
2021/07/14 03:12:12;;;;;;;10.23;9.23;;;29.90;52.30;;;;;;4777312;55;21604;-24
2021/07/14 03:17:16;;;;;;;9.70;8.65;;;29.90;52.20;;;;;;4747721;55;21021;-26
2021/07/14 03:22:20;;;;;;;8.65;7.80;;;29.90;51.90;;;;;;4760973;55;21006;-26
2021/07/14 03:27:21;;;;;;;9.93;8.13;;;29.90;51.70;;;;;;4747228;55;21065;-23
2021/07/14 03:32:22;;;;;;;9.65;8.32;;;29.90;51.70;;;;;;4738737;55;21010;-27
2021/07/14 03:37:24;;;;;;;12.82;7.75;;;29.90;51.70;;;;;;4748776;55;21078;-28
2021/07/14 03:42:29;;;;;;;8.02;7.15;;;29.90;51.70;;;;;;4769103;55;21065;-23
2021/07/14 03:47:30;;;;;;;8.73;7.37;;;29.80;51.40;;;;;;4738215;56;21520;-24
2021/07/14 03:52:33;;;;;;;10.57;7.47;;;29.80;51.40;;;;;;4808177;55;21488;-24
2021/07/14 03:57:34;;;;;;;7.87;6.97;;;29.80;51.30;;;;;;4738157;59;21181;-25
2021/07/14 04:02:43;;;;;;;9.75;7.15;;;29.80;51.20;;;;;;4759252;55;21034;-27
2021/07/14 04:07:46;;;;;;;9.05;7.35;;;29.80;51.20;;;;;;4748539;55;20998;-26
2021/07/14 04:12:49;;;;;;;9.57;7.30;;;29.80;51.00;;;;;;4794608;55;21472;-25
2021/07/14 04:17:50;;;;;;;8.52;7.12;;;29.80;50.90;;;;;;4758611;55;20998;-26
2021/07/14 04:22:50;;;;;;;10.38;7.18;;;29.80;50.80;;;;;;4740635;55;21022;-22
2021/07/14 04:27:51;;;;;;;8.75;6.55;;;29.80;50.90;;;;;;4738009;55;21014;-26
2021/07/14 04:32:52;;;;;;;9.45;7.45;;;29.80;51.10;;;;;;4763350;55;21199;-25
2021/07/14 04:37:53;;;;;;;9.88;6.90;;;29.80;50.80;;;;;;4768845;55;20994;-26
2021/07/14 04:42:54;;;;;;;10.38;7.62;;;29.80;50.60;;;;;;4789417;55;21010;-23
2021/07/14 04:47:55;;;;;;;10.80;6.68;;;29.80;50.70;;;;;;4764305;55;21010;-26
2021/07/14 04:52:55;;;;;;;9.32;7.12;;;29.70;50.70;;;;;;4754106;55;20990;-26
2021/07/14 04:57:56;;;;;;;12.05;6.55;;;29.70;50.40;;;;;;4744034;55;21086;-27
2021/07/14 05:02:57;;;;;;;8.77;6.82;;;29.70;50.40;;;;;;4762228;55;21077;-27
2021/07/14 05:07:58;;;;;;;9.10;7.30;;;29.70;50.40;;;;;;4748922;55;21556;-24
2021/07/14 05:12:59;;;;;;;8.25;6.30;;;29.70;50.50;;;;;;4759992;55;21001;-31
2021/07/14 05:18:00;;;;;;;10.05;7.25;;;29.70;50.70;;;;;;4747433;55;21034;-24
2021/07/14 05:23:01;;;;;;;10.45;7.50;;;29.70;50.60;;;;;;4757155;55;21480;-26
2021/07/14 05:28:02;;;;;;;9.77;7.00;;;29.70;50.40;;;;;;4747983;55;21013;-27
2021/07/14 05:33:03;;;;;;;11.63;7.53;;;29.70;50.70;;;;;;4756162;55;20994;-23
2021/07/14 05:38:04;;;;;;;10.43;7.60;;;29.70;50.50;;;;;;4782155;55;21587;-25
2021/07/14 05:43:05;;;;;;;10.48;7.93;;;29.70;50.40;;;;;;4738042;55;21066;-23
2021/07/14 05:48:06;;;;;;;10.02;7.15;;;29.70;50.50;;;;;;4743256;55;21001;-25
2021/07/14 05:53:08;;;;;;;10.27;7.57;;;29.70;50.50;;;;;;4804191;55;21532;-25
2021/07/14 05:58:10;;;;;;;10.90;7.50;;;29.70;50.40;;;;;;4737822;59;21094;-28
2021/07/14 06:03:11;;;;;;;10.82;7.25;;;29.70;50.40;;;;;;4747145;55;21010;-25
2021/07/14 06:08:12;;;;;;;9.13;7.47;;;29.70;50.60;;;;;;4746283;55;21018;-28
2021/07/14 06:13:13;;;;;;;12.10;7.85;;;29.70;50.60;;;;;;4741363;55;21006;-28
2021/07/14 06:18:14;;;;;;;9.80;7.50;;;29.70;50.60;;;;;;4738536;59;21021;-26
2021/07/14 06:23:15;;;;;;;10.77;8.40;;;29.70;50.60;;;;;;4740631;55;21018;-30
2021/07/14 06:28:15;;;;;;;11.15;8.65;;;29.70;50.70;;;;;;4765803;55;21579;-26
2021/07/14 06:33:16;;;;;;;13.27;9.32;;;29.70;50.70;;;;;;4783344;55;21002;-26
2021/07/14 06:38:18;;;;;;;13.60;9.23;;;29.70;50.80;;;;;;4747176;55;21014;-27
2021/07/14 06:43:19;;;;;;;12.07;9.18;;;29.70;50.90;;;;;;4748832;55;21054;-26
2021/07/14 06:48:20;;;;;;;13.62;9.07;;;29.80;51.00;;;;;;4741063;55;21488;-24
2021/07/14 06:53:21;;;;;;;11.65;9.00;;;29.80;51.10;;;;;;4779206;55;21045;-25
2021/07/14 06:58:22;;;;;;;13.05;9.43;;;29.70;51.30;;;;;;4739922;55;21635;-25
2021/07/14 07:03:23;;;;;;;13.38;10.05;;;29.80;51.40;;;;;;4737084;59;21042;-26
2021/07/14 07:08:24;;;;;;;12.55;9.52;;;29.80;51.40;;;;;;4758469;55;21002;-27
2021/07/14 07:13:25;;;;;;;10.90;8.93;;;29.70;51.50;;;;;;4767963;55;21065;-26
2021/07/14 07:18:25;;;;;;;15.00;10.23;;;29.80;51.80;;;;;;4737981;59;21496;-30
2021/07/14 07:23:26;;;;;;;12.80;9.57;;;29.80;51.80;;;;;;4755624;55;21022;-33
2021/07/14 07:28:33;;;;;;;15.35;10.10;;;29.80;52.00;;;;;;4752476;55;21002;-28
2021/07/14 07:33:34;;;;;;;13.48;10.18;;;29.80;52.00;;;;;;4738652;55;21572;-26
2021/07/14 07:38:37;;;;;;;12.35;9.40;;;29.80;52.80;;;;;;4761539;55;21002;-27
2021/07/14 07:43:38;;;;;;;14.90;10.32;;;29.80;52.20;;;;;;4738004;59;21592;-27
2021/07/14 07:48:39;;;;;;;21.58;14.23;;;29.80;52.20;;;;;;4735609;59;21021;-28
2021/07/14 07:53:39;;;;;;;29.67;18.92;;;29.80;53.30;;;;;;4758942;55;21010;-28
2021/07/14 07:58:43;;;;;;;32.97;24.50;;;29.80;54.00;;;;;;4771589;55;21077;-22
2021/07/14 08:03:44;;;;;;;31.55;24.05;;;29.90;54.30;;;;;;4737206;59;22121;-25
2021/07/14 08:08:48;;;;;;;37.22;25.88;;;29.90;54.60;;;;;;4737759;55;21109;-24
2021/07/14 08:13:49;;;;;;;33.97;24.40;;;29.90;54.50;;;;;;4738656;55;21006;-26
2021/07/14 08:18:50;;;;;;;37.08;24.37;;;29.90;54.60;;;;;;4751107;55;21085;-28
2021/07/14 08:23:51;;;;;;;33.58;23.67;;;29.90;54.60;;;;;;4740046;55;21013;-26
2021/07/14 08:28:52;;;;;;;44.63;27.30;;;29.90;54.30;;;;;;4752115;55;21006;-29
2021/07/14 08:33:53;;;;;;;34.92;26.55;;;29.90;54.40;;;;;;4737797;59;21045;-29
2021/07/14 08:38:54;;;;;;;38.47;25.75;;;29.90;54.20;;;;;;4766314;55;21057;-29
2021/07/14 08:43:56;;;;;;;34.30;24.90;;;30.00;54.10;;;;;;4776525;55;21529;-28
2021/07/14 08:48:59;;;;;;;33.30;24.40;;;30.00;54.40;;;;;;4748375;55;20997;-26
2021/07/14 08:54:01;;;;;;;34.35;26.45;;;30.00;54.00;;;;;;4744629;55;21005;-28
2021/07/14 08:59:02;;;;;;;34.78;24.95;;;30.00;54.00;;;;;;4758015;55;21097;-29
2021/07/14 09:04:04;;;;;;;33.05;26.17;;;30.00;54.10;;;;;;4737557;55;21093;-25
2021/07/14 09:09:06;;;;;;;36.53;25.58;;;30.00;53.90;;;;;;4738911;59;21512;-30
2021/07/14 09:14:46;;;;;;;36.17;25.95;;;30.10;54.00;;;;;;4738264;59;21524;-29
2021/07/14 09:19:47;;;;;;;35.58;25.90;;;30.00;53.90;;;;;;4778126;55;20982;-24
2021/07/14 09:24:48;;;;;;;32.60;25.00;;;30.10;54.00;;;;;;4758030;55;21073;-24
2021/07/14 09:30:07;;;;;;;32.33;24.92;;;30.10;54.00;;;;;;4758031;55;21026;-30
2021/07/14 09:35:09;;;;;;;34.28;26.08;;;30.10;54.10;;;;;;4755222;55;21006;-32
2021/07/14 09:40:20;;;;;;;32.17;25.25;;;30.10;54.10;;;;;;4747165;55;21069;-22
2021/07/14 09:45:47;;;;;;;34.20;25.55;;;30.20;54.20;;;;;;4743527;55;21010;-30
2021/07/14 09:51:19;;;;;;;33.83;24.98;;;30.10;54.20;;;;;;4742681;55;21175;-31
2021/07/14 09:56:28;;;;;;;47.17;31.25;;;30.20;54.70;;;;;;4762349;55;21516;-26
2021/07/14 10:01:38;;;;;;;47.88;34.05;;;30.20;55.00;;;;;;4737723;59;21531;-27
2021/07/14 10:06:39;;;;;;;47.13;35.25;;;30.20;54.60;;;;;;4745836;55;21220;-25
2021/07/14 10:11:41;;;;;;;45.90;34.80;;;30.20;54.40;;;;;;4737763;59;21061;-25
2021/07/14 10:16:42;;;;;;;46.40;36.15;;;30.10;54.20;;;;;;4745941;55;21441;-27
2021/07/14 10:21:50;;;;;;;53.60;35.97;;;30.20;54.50;;;;;;4787034;55;21113;-28
2021/07/14 10:26:56;;;;;;;56.42;38.35;;;30.20;54.40;;;;;;4744106;55;21022;-30
2021/07/14 10:31:57;;;;;;;56.25;41.58;;;30.20;54.70;;;;;;4739953;55;21509;-29
2021/07/14 10:36:59;;;;;;;60.28;44.25;;;30.20;55.00;;;;;;4779297;55;21579;-29
2021/07/14 10:42:00;;;;;;;62.03;47.08;;;30.20;55.00;;;;;;4751467;55;20998;-30
2021/07/14 10:47:02;;;;;;;63.95;48.03;;;30.30;55.20;;;;;;4775006;55;21631;-24
2021/07/14 10:52:03;;;;;;;57.75;45.42;;;30.30;55.40;;;;;;4743245;55;21046;-29
2021/07/14 10:57:06;;;;;;;49.50;39.75;;;30.30;54.90;;;;;;4737750;59;21528;-30
2021/07/14 11:02:07;;;;;;;52.08;39.08;;;30.30;53.80;;;;;;4737634;59;21524;-29
2021/07/14 11:07:08;;;;;;;55.33;40.40;;;30.30;53.70;;;;;;4737927;59;21006;-31
2021/07/14 11:12:26;;;;;;;56.65;42.58;;;30.30;53.60;;;;;;4747741;55;21093;-32
2021/07/14 11:27:43;;;;;;;59.17;42.58;;;30.30;54.10;;;;;;4762313;54;22121;-29
2021/07/14 11:32:54;;;;;;;58.47;40.13;;;30.40;54.60;;;;;;4764375;54;21033;-30
2021/07/14 11:38:00;;;;;;;56.35;40.88;;;30.40;53.90;;;;;;4750764;55;21010;-24
2021/07/14 11:43:16;;;;;;;52.53;39.57;;;30.40;54.00;;;;;;4743495;58;21548;-29
2021/07/14 11:48:27;;;;;;;36.45;28.75;;;30.40;53.80;;;;;;4762744;55;21524;-31
2021/07/14 11:53:40;;;;;;;32.22;23.58;;;30.40;50.80;;;;;;4768059;55;21109;-27
2021/07/14 11:59:09;;;;;;;28.80;22.08;;;30.50;48.10;;;;;;4752414;55;21563;-29
2021/07/14 12:04:10;;;;;;;28.92;20.52;;;30.50;46.50;;;;;;4766369;55;20998;-25
2021/07/14 12:09:30;;;;;;;21.50;15.18;;;30.50;45.90;;;;;;4740199;57;21480;-25
2021/07/14 12:14:39;;;;;;;25.30;15.57;;;30.60;44.50;;;;;;4747330;55;21026;-28
2021/07/14 12:19:57;;;;;;;21.17;13.95;;;30.60;43.30;;;;;;4739417;58;21057;-30
2021/07/14 12:25:14;;;;;;;24.35;15.73;;;30.60;42.10;;;;;;4752945;55;22343;-29
2021/07/14 12:30:23;;;;;;;23.25;14.75;;;30.70;42.40;;;;;;4781507;55;21117;-27
2021/07/14 12:35:33;;;;;;;26.48;15.95;;;30.70;41.80;;;;;;4768514;55;21590;-27
2021/07/14 12:40:55;;;;;;;30.10;15.80;;;30.80;42.00;;;;;;4756021;55;21029;-28
2021/07/14 12:45:58;;;;;;;26.60;14.55;;;30.80;41.50;;;;;;4781963;55;21034;-29
2021/07/14 12:50:59;;;;;;;27.42;16.02;;;30.90;41.30;;;;;;4766471;55;21476;-25
2021/07/14 12:56:00;;;;;;;37.47;16.98;;;30.90;41.10;;;;;;4742187;55;21125;-28
2021/07/14 13:01:04;;;;;;;35.25;19.85;;;30.90;42.00;;;;;;4739767;55;21077;-28
2021/07/14 13:06:08;;;;;;;35.80;21.62;;;30.90;43.80;;;;;;4735073;57;21009;-25
2021/07/14 13:11:09;;;;;;;38.42;21.23;;;30.80;43.90;;;;;;4820632;55;21488;-24
2021/07/14 13:16:10;;;;;;;32.30;21.15;;;30.80;44.30;;;;;;4745710;55;21548;-30
2021/07/14 13:21:23;;;;;;;37.67;21.52;;;30.70;44.60;;;;;;4745592;55;21101;-32
2021/07/14 13:26:24;;;;;;;31.42;21.23;;;30.70;44.90;;;;;;4775328;55;21548;-26
2021/07/14 13:31:26;;;;;;;32.42;20.98;;;30.60;45.20;;;;;;4779813;55;21021;-29
2021/07/14 13:36:30;;;;;;;34.15;19.80;;;30.60;45.50;;;;;;4765854;55;21063;-30
2021/07/14 13:41:38;;;;;;;29.15;20.23;;;30.50;45.80;;;;;;4738395;59;20998;-30
2021/07/14 13:46:44;;;;;;;29.90;20.60;;;30.50;46.00;;;;;;4738578;55;21459;-24
2021/07/14 13:51:58;;;;;;;32.78;21.20;;;30.50;46.30;;;;;;4754985;55;21033;-27
2021/07/14 13:57:20;;;;;;;29.52;20.30;;;30.40;46.50;;;;;;4779044;55;21089;-30
2021/07/14 14:02:33;;;;;;;26.55;18.98;;;30.40;46.70;;;;;;4739215;55;21133;-33
2021/07/14 14:07:36;;;;;;;27.70;19.80;;;30.40;46.90;;;;;;4746055;55;21468;-30
2021/07/14 14:12:55;;;;;;;28.62;19.00;;;30.30;47.00;;;;;;4748154;55;21046;-26
2021/07/14 14:17:58;;;;;;;24.45;19.35;;;30.40;47.20;;;;;;4738156;59;21062;-32
2021/07/14 14:23:01;;;;;;;26.40;19.12;;;30.40;47.40;;;;;;4738551;55;21014;-26
2021/07/14 14:28:10;;;;;;;24.58;19.40;;;30.30;47.40;;;;;;4758748;55;21555;-26
2021/07/14 14:33:12;;;;;;;26.15;20.33;;;30.30;47.60;;;;;;4737957;59;21552;-25
2021/07/14 14:38:15;;;;;;;26.17;19.75;;;30.30;47.70;;;;;;4741174;55;21496;-30
2021/07/14 14:43:19;;;;;;;25.60;19.15;;;30.30;47.80;;;;;;4739029;59;21500;-27
2021/07/14 14:48:20;;;;;;;25.25;18.23;;;30.30;48.00;;;;;;4761165;55;21078;-25
2021/07/14 14:53:21;;;;;;;26.77;20.12;;;30.30;48.10;;;;;;4768460;55;21065;-23
2021/07/14 14:58:26;;;;;;;24.50;19.75;;;30.30;48.20;;;;;;4763461;55;21157;-26
2021/07/14 15:03:27;;;;;;;23.03;18.67;;;30.30;48.30;;;;;;4744844;55;22081;-29
2021/07/14 15:08:28;;;;;;;24.60;19.58;;;30.30;48.40;;;;;;4737968;59;21029;-25
2021/07/14 15:13:29;;;;;;;24.25;19.75;;;30.30;48.50;;;;;;4738362;59;21057;-26
2021/07/14 15:18:33;;;;;;;24.42;19.15;;;30.30;49.20;;;;;;4749063;55;21549;-27
2021/07/14 15:23:34;;;;;;;24.87;19.48;;;30.30;48.60;;;;;;4760325;55;21595;-25
2021/07/14 15:28:44;;;;;;;22.92;18.77;;;30.30;48.70;;;;;;4738375;59;20994;-30
2021/07/14 15:33:46;;;;;;;25.17;19.12;;;30.30;48.80;;;;;;4772942;55;21126;-30
2021/07/14 15:38:48;;;;;;;25.05;19.12;;;30.20;48.80;;;;;;4743428;55;21018;-23
2021/07/14 15:43:50;;;;;;;21.12;18.90;;;30.30;49.00;;;;;;4781675;55;20990;-22
2021/07/14 15:48:51;;;;;;;24.52;18.75;;;30.30;49.00;;;;;;4737894;55;21516;-24
2021/07/14 15:53:51;;;;;;;24.23;19.00;;;30.30;49.20;;;;;;4743470;55;21010;-30
2021/07/14 15:58:52;;;;;;;22.60;18.15;;;30.30;49.20;;;;;;4759096;55;21026;-26
2021/07/14 16:03:53;;;;;;;27.60;19.35;;;30.30;49.30;;;;;;4737674;59;21025;-25
2021/07/14 16:08:54;;;;;;;22.75;19.05;;;30.30;49.30;;;;;;4744330;55;21062;-27
2021/07/14 16:13:55;;;;;;;25.55;19.48;;;30.30;49.40;;;;;;4762609;55;21061;-24
2021/07/14 16:18:56;;;;;;;23.55;19.60;;;30.30;49.50;;;;;;4751985;55;21572;-23
2021/07/14 16:23:58;;;;;;;23.58;19.73;;;30.20;49.50;;;;;;4784292;55;20986;-22
2021/07/14 16:29:00;;;;;;;26.40;20.80;;;30.30;49.60;;;;;;4760164;55;21612;-23
2021/07/14 16:34:01;;;;;;;21.65;18.70;;;30.20;49.60;;;;;;4769823;55;21014;-29
2021/07/14 16:39:02;;;;;;;26.77;19.70;;;30.30;49.70;;;;;;4758316;55;21054;-22
2021/07/14 16:44:06;;;;;;;22.95;18.83;;;30.20;49.70;;;;;;4738079;59;21046;-23
2021/07/14 16:49:07;;;;;;;26.15;19.90;;;30.30;49.80;;;;;;4755347;55;22272;-28
2021/07/14 16:54:07;;;;;;;24.23;19.60;;;30.30;49.90;;;;;;4746729;55;21034;-24
2021/07/14 16:59:08;;;;;;;21.87;19.00;;;30.30;50.00;;;;;;4737503;59;21596;-29
2021/07/14 17:04:09;;;;;;;21.48;18.83;;;30.20;50.00;;;;;;4743122;55;21072;-30
2021/07/14 17:09:10;;;;;;;21.52;19.23;;;30.20;50.00;;;;;;4737907;59;21002;-26
2021/07/14 17:14:11;;;;;;;22.67;19.10;;;30.30;50.20;;;;;;4756725;55;21038;-26
2021/07/14 17:19:12;;;;;;;23.52;19.40;;;30.30;50.30;;;;;;4754063;55;20986;-27
2021/07/14 17:24:13;;;;;;;21.35;18.77;;;30.30;50.30;;;;;;4738844;55;21488;-27
2021/07/14 17:29:15;;;;;;;23.73;19.12;;;30.20;50.30;;;;;;4738283;59;21081;-26
2021/07/14 17:34:17;;;;;;;21.50;17.83;;;30.30;50.40;;;;;;4738689;59;21579;-27
2021/07/14 17:39:18;;;;;;;22.30;19.27;;;30.20;50.40;;;;;;4742315;55;21564;-26
2021/07/14 17:44:19;;;;;;;22.35;18.58;;;30.30;50.50;;;;;;4751658;55;21014;-26
2021/07/14 17:49:20;;;;;;;25.02;19.77;;;30.30;50.60;;;;;;4777746;55;21548;-28
2021/07/14 17:54:21;;;;;;;22.33;19.42;;;30.20;51.20;;;;;;4746489;55;20986;-24
2021/07/14 17:59:22;;;;;;;21.95;19.65;;;30.20;50.60;;;;;;4738602;55;21604;-26
2021/07/14 18:04:22;;;;;;;23.25;20.45;;;30.30;50.80;;;;;;4741723;55;21066;-27
2021/07/14 18:09:23;;;;;;;22.20;19.60;;;30.30;50.80;;;;;;4738175;55;21070;-23
2021/07/14 18:14:25;;;;;;;22.98;20.48;;;30.30;50.90;;;;;;4742433;55;21085;-25
2021/07/14 18:19:26;;;;;;;22.52;18.75;;;30.30;50.90;;;;;;4739322;55;21577;-29
2021/07/14 18:24:27;;;;;;;21.17;18.95;;;30.30;51.00;;;;;;4738037;59;21074;-21
2021/07/14 18:29:28;;;;;;;24.30;20.30;;;30.30;51.00;;;;;;4755050;55;21483;-28
2021/07/14 18:34:30;;;;;;;22.50;19.60;;;30.20;51.00;;;;;;4751816;55;21069;-27
2021/07/14 18:39:31;;;;;;;22.48;19.50;;;30.30;51.20;;;;;;4738861;55;21513;-28
2021/07/14 18:44:32;;;;;;;21.73;19.15;;;30.20;51.10;;;;;;4776527;55;21010;-26
2021/07/14 18:49:33;;;;;;;20.73;18.60;;;30.30;51.20;;;;;;4748775;55;21049;-26
2021/07/14 18:54:35;;;;;;;25.10;19.85;;;30.20;51.20;;;;;;4738002;59;21040;-25
2021/07/14 18:59:36;;;;;;;20.90;18.67;;;30.30;51.30;;;;;;4755442;55;21148;-30
2021/07/14 19:04:37;;;;;;;21.65;19.35;;;30.20;50.80;;;;;;4738215;59;21544;-31
2021/07/14 19:09:38;;;;;;;23.45;19.55;;;30.20;51.40;;;;;;4743946;55;21006;-21
2021/07/14 19:14:38;;;;;;;23.40;19.30;;;30.20;51.40;;;;;;4758600;55;21487;-27
2021/07/14 19:19:39;;;;;;;22.67;19.45;;;30.20;51.50;;;;;;4736490;59;20998;-23
2021/07/14 19:24:40;;;;;;;22.73;19.77;;;30.20;51.50;;;;;;4741987;55;21491;-29
2021/07/14 19:29:41;;;;;;;21.42;19.12;;;30.20;51.60;;;;;;4738448;59;21624;-31
2021/07/14 19:34:42;;;;;;;21.05;18.80;;;30.20;51.60;;;;;;4737331;55;21101;-28
2021/07/14 19:39:42;;;;;;;22.10;19.10;;;30.20;51.70;;;;;;4763329;55;21038;-24
2021/07/14 19:44:43;;;;;;;21.73;18.45;;;30.20;51.70;;;;;;4759174;55;21026;-27
2021/07/14 19:49:44;;;;;;;22.37;19.90;;;30.20;51.80;;;;;;4756203;55;21615;-27
2021/07/14 19:54:45;;;;;;;22.30;19.55;;;30.20;51.80;;;;;;4738601;59;21034;-23
2021/07/14 19:59:46;;;;;;;22.37;19.90;;;30.20;51.80;;;;;;4738043;55;21292;-29
2021/07/14 20:04:46;;;;;;;23.70;19.35;;;30.20;51.90;;;;;;4749679;55;22299;-27
2021/07/14 20:09:47;;;;;;;23.25;19.80;;;30.20;52.00;;;;;;4738283;59;21010;-25
2021/07/14 20:14:54;;;;;;;21.90;19.55;;;30.20;52.00;;;;;;4738744;59;21051;-28
2021/07/14 20:19:55;;;;;;;21.17;18.67;;;30.20;52.00;;;;;;4745030;55;21513;-26
2021/07/14 20:24:56;;;;;;;23.10;19.50;;;30.20;52.10;;;;;;4748449;55;21101;-27
2021/07/14 20:29:57;;;;;;;21.75;18.87;;;30.20;52.20;;;;;;4754199;55;20994;-27
2021/07/14 20:34:58;;;;;;;24.20;19.75;;;30.20;52.20;;;;;;4771593;55;21049;-27
2021/07/14 20:39:58;;;;;;;23.08;19.00;;;30.20;52.40;;;;;;4750388;55;21034;-25
2021/07/14 20:44:59;;;;;;;24.12;18.87;;;30.20;52.30;;;;;;4751790;55;21018;-27
2021/07/14 20:50:01;;;;;;;20.52;18.30;;;30.20;52.40;;;;;;4772020;55;21081;-23
2021/07/14 20:55:03;;;;;;;22.20;19.10;;;30.20;52.40;;;;;;4754753;55;21580;-27
2021/07/14 21:00:10;;;;;;;23.25;18.55;;;30.20;52.40;;;;;;4746480;55;21527;-28
2021/07/14 21:05:13;;;;;;;21.62;18.95;;;30.20;52.50;;;;;;4760852;55;21069;-24
2021/07/14 21:10:15;;;;;;;21.42;19.08;;;30.20;52.50;;;;;;4738218;59;21078;-24
2021/07/14 21:15:17;;;;;;;21.95;18.42;;;30.20;52.60;;;;;;4760648;55;21010;-24
2021/07/14 21:20:19;;;;;;;21.45;18.52;;;30.20;52.60;;;;;;4780205;55;20998;-24
2021/07/14 21:25:21;;;;;;;22.23;18.73;;;30.20;52.60;;;;;;4757715;55;20986;-26
2021/07/14 21:30:25;;;;;;;21.00;18.67;;;30.20;52.70;;;;;;4756452;55;22071;-29
2021/07/14 21:35:26;;;;;;;20.70;18.45;;;30.20;52.70;;;;;;4762816;55;21089;-27
2021/07/14 21:40:28;;;;;;;20.48;17.83;;;30.20;52.70;;;;;;4737597;55;21021;-24
2021/07/14 21:45:29;;;;;;;22.13;18.50;;;30.20;52.80;;;;;;4738689;55;22359;-24
2021/07/14 21:50:31;;;;;;;23.38;18.65;;;30.20;52.80;;;;;;4738540;59;21014;-22
2021/07/14 21:55:33;;;;;;;20.77;18.40;;;30.20;52.80;;;;;;4760469;55;21639;-25
2021/07/14 22:00:36;;;;;;;20.80;18.08;;;30.20;52.90;;;;;;4750927;55;21048;-28
2021/07/14 22:05:39;;;;;;;23.00;18.83;;;30.20;52.90;;;;;;4744505;55;21532;-24
2021/07/14 22:11:41;;;;;;;21.00;18.73;;;30.20;52.90;;;;;;4750700;55;21010;-25
2021/07/14 22:16:45;;;;;;;21.02;17.55;;;30.20;52.90;;;;;;4740634;55;21018;-26
2021/07/14 22:21:46;;;;;;;20.45;18.12;;;30.20;53.00;;;;;;4764858;55;20980;-26
2021/07/14 22:26:47;;;;;;;22.30;18.62;;;30.20;53.00;;;;;;4739131;55;21537;-26
2021/07/14 22:31:49;;;;;;;21.80;18.42;;;30.20;53.00;;;;;;4739842;55;21460;-26
2021/07/14 22:36:53;;;;;;;21.12;17.95;;;30.20;53.00;;;;;;4788449;55;21025;-26
2021/07/14 22:41:57;;;;;;;23.48;18.55;;;30.20;53.10;;;;;;4744285;55;21006;-25
2021/07/14 22:46:58;;;;;;;20.90;18.62;;;30.20;53.10;;;;;;4781657;55;21073;-23
2021/07/14 22:51:59;;;;;;;21.00;18.60;;;30.20;53.10;;;;;;4756453;55;21471;-24
2021/07/14 22:57:00;;;;;;;21.42;17.75;;;30.20;53.10;;;;;;4738914;55;21049;-28
2021/07/14 23:02:02;;;;;;;21.23;17.23;;;30.20;53.20;;;;;;4749812;55;20997;-27
2021/07/14 23:07:04;;;;;;;21.33;17.75;;;30.20;53.20;;;;;;4782886;55;21489;-24
2021/07/14 23:12:06;;;;;;;22.87;18.30;;;30.20;53.20;;;;;;4779424;55;21005;-26
2021/07/14 23:17:07;;;;;;;22.80;17.67;;;30.20;53.30;;;;;;4752673;55;21002;-26
2021/07/14 23:22:08;;;;;;;19.90;17.80;;;30.20;53.30;;;;;;4753281;55;21006;-23
2021/07/14 23:27:09;;;;;;;18.83;16.98;;;30.20;53.30;;;;;;4753354;55;21013;-26
2021/07/14 23:32:09;;;;;;;19.98;17.62;;;30.20;53.40;;;;;;4803513;55;20995;-26
2021/07/14 23:37:10;;;;;;;19.77;17.00;;;30.20;53.30;;;;;;4742685;55;21030;-23
2021/07/14 23:42:12;;;;;;;19.70;17.70;;;30.20;53.80;;;;;;4762355;55;21069;-26
2021/07/14 23:47:13;;;;;;;19.42;17.15;;;30.20;53.40;;;;;;4770632;55;21030;-25
2021/07/14 23:52:13;;;;;;;18.77;16.75;;;30.20;53.40;;;;;;4738020;59;21034;-22
2021/07/14 23:57:14;;;;;;;18.60;16.58;;;30.20;53.40;;;;;;4784334;55;21121;-21
